This is the latest recevied weather packets stored in our database for station/object EFHK. If no packets are shown the sender has not sent any weather packets the latest 1 day(s).
| Time | Temp. | Humidity | Pressure | Rain* | Wind** | Luminosity | Snow |
|---|---|---|---|---|---|---|---|
| 1777997009 | 10.56° C | 29% | 1005 hPa | - | 7.6 m/s, 260° | - | - |
| 1777996404 | 10.56° C | 29% | 1005 hPa | - | 7.6 m/s, 260° | - | - |
| 1777995921 | 10.56° C | 29% | 1004 hPa | - | 7.15 m/s, 260° | - | - |
| 1777995201 | 10.56° C | 29% | 1004 hPa | - | 7.15 m/s, 260° | - | - |
| 1777994603 | 10.56° C | 29% | 1004 hPa | - | 7.15 m/s, 260° | - | - |
| 1777994001 | 10.56° C | 32% | 1004 hPa | - | 7.15 m/s, 250° | - | - |
| 1777993399 | 10.56° C | 32% | 1004 hPa | - | 7.15 m/s, 250° | - | - |
| 1777992801 | 10.56° C | 32% | 1004 hPa | - | 7.15 m/s, 250° | - | - |
| 1777992200 | 10° C | 37% | 1004 hPa | - | 5.81 m/s, 280° | - | - |
| 1777991599 | 10° C | 37% | 1004 hPa | - | 5.81 m/s, 280° | - | - |
| 1777991001 | 10° C | 37% | 1024 hPa | - | 5.81 m/s, 280° | - | - |
| 1777990400 | 10.56° C | 32% | 1024 hPa | - | 6.71 m/s, 260° | - | - |
| 1777989799 | 10.56° C | 32% | 1024 hPa | - | 6.71 m/s, 260° | - | - |
| 1777989199 | 10.56° C | 32% | 1004 hPa | - | 6.71 m/s, 260° | - | - |
| 1777988602 | 10.56° C | 34% | 1004 hPa | - | 6.71 m/s, 270° | - | - |
| 1777988000 | 10.56° C | 34% | 1004 hPa | - | 6.71 m/s, 270° | - | - |
| 1777987401 | 10.56° C | 34% | 1004 hPa | - | 6.71 m/s, 270° | - | - |
| 1777986799 | 10° C | 39% | 1004 hPa | - | 5.81 m/s, 280° | - | - |
| 1777986199 | 10° C | 39% | 1004 hPa | - | 5.81 m/s, 280° | - | - |
| 1777985602 | 10° C | 39% | 1004 hPa | - | 5.81 m/s, 280° | - | - |
| 1777985003 | 10.56° C | 40% | 1004 hPa | - | 7.15 m/s, 270° | - | - |
| 1777984399 | 10.56° C | 40% | 1004 hPa | - | 7.15 m/s, 270° | - | - |
| 1777983797 | 10.56° C | 40% | 1004 hPa | - | 7.15 m/s, 270° | - | - |
| 1777983197 | 11.67° C | 37% | 1003 hPa | - | 6.71 m/s, 280° | - | - |
| 1777982602 | 11.67° C | 37% | 1003 hPa | - | 6.71 m/s, 280° | - | - |
* Rain since midnight (hover to see other rain measurements)
** Current wind speed in m/s (hover to see current wind gust speed)